Terminal Aerodrome Forecast
Issued by NWS

Home | Current Version | Previous Version | Text Only | Print | Product List | Glossary On
Versions: 1 2 3 4 5 6 7 8 9 10 11 12 13 14 15 16 17 18 19 20 21 22 23 24 25 26 27
000
FTUS44 KLIX 061720
TAFMSY
TAF
KMSY 061720Z 0618/0718 29010KT P6SM BKN015
     FM070000 36006KT P6SM BKN020
     FM070600 06004KT P6SM BKN030
     FM071200 06006KT P6SM BKN015
     FM071700 09006KT P6SM SCT035=

USA.gov is the U.S. government's official web portal to all federal, state and local government web resources and services.